createdAt,value
2018-11-03T00:02:03.317Z,45.83
2018-11-03T00:04:34.207Z,46.17
2018-11-03T00:07:05.236Z,45.73
2018-11-03T00:09:36.079Z,44.33
2018-11-03T00:12:07.108Z,46.63
2018-11-03T00:14:38.000Z,44.30
2018-11-03T00:17:08.905Z,48.77
2018-11-03T00:19:39.813Z,47.40
2018-11-03T00:22:10.833Z,47.50
2018-11-03T00:24:41.660Z,44.90
2018-11-03T00:27:12.513Z,44.23
2018-11-03T00:29:43.337Z,45.00
2018-11-03T00:32:14.248Z,44.50
2018-11-03T00:34:45.105Z,43.80
2018-11-03T00:37:15.978Z,41.67
2018-11-03T00:39:47.036Z,42.20
2018-11-03T00:42:17.957Z,42.73
2018-11-03T00:44:48.764Z,43.03
2018-11-03T00:47:19.697Z,40.80
2018-11-03T00:49:50.544Z,40.53
2018-11-03T00:52:21.646Z,41.50
2018-11-03T00:54:52.516Z,40.63
2018-11-03T00:57:23.377Z,40.37
2018-11-03T00:59:54.342Z,41.70
2018-11-03T01:02:25.238Z,41.30
2018-11-03T01:04:56.173Z,40.13
2018-11-03T01:07:27.055Z,41.20
2018-11-03T01:09:57.914Z,41.13
2018-11-03T01:12:28.786Z,40.13
2018-11-03T01:14:59.648Z,40.03
2018-11-03T01:17:30.621Z,39.57
2018-11-03T01:20:01.483Z,40.30
2018-11-03T01:22:32.417Z,39.93
2018-11-03T01:25:03.392Z,40.90
2018-11-03T01:27:34.315Z,38.17
2018-11-03T01:30:05.833Z,40.40
2018-11-03T01:32:36.741Z,40.37
2018-11-03T01:35:09.111Z,37.87
2018-11-03T01:37:40.549Z,38.77
2018-11-03T01:40:13.709Z,40.57
2018-11-03T01:42:44.710Z,39.60
2018-11-03T01:45:15.567Z,39.33
2018-11-03T01:47:46.449Z,38.53
2018-11-03T01:50:17.308Z,36.83
2018-11-03T01:52:48.162Z,38.57
2018-11-03T01:55:19.023Z,38.47
2018-11-03T01:57:49.838Z,37.73
2018-11-03T02:00:20.675Z,37.60
2018-11-03T02:02:51.511Z,36.87
2018-11-03T02:05:22.348Z,39.23
2018-11-03T02:07:53.178Z,37.10
2018-11-03T02:10:24.011Z,39.87
2018-11-03T02:12:54.828Z,37.67
2018-11-03T02:15:25.647Z,37.20
2018-11-03T02:17:56.643Z,37.23
2018-11-03T02:20:27.885Z,36.17
2018-11-03T02:22:58.858Z,39.80
2018-11-03T02:25:29.662Z,38.83
2018-11-03T02:28:00.511Z,36.63
2018-11-03T02:30:31.527Z,38.33
2018-11-03T02:33:03.868Z,38.73
2018-11-03T02:35:34.789Z,37.30
2018-11-03T02:38:05.757Z,37.50
2018-11-03T02:40:36.631Z,36.77
2018-11-03T02:43:07.544Z,37.80
2018-11-03T02:45:38.751Z,37.07
2018-11-03T02:48:09.921Z,36.60
2018-11-03T02:50:41.096Z,37.47
2018-11-03T02:53:11.976Z,38.40
2018-11-03T02:55:43.496Z,38.20
2018-11-03T02:58:14.402Z,37.03
2018-11-03T03:00:45.265Z,36.40
2018-11-03T03:03:16.303Z,37.67
2018-11-03T03:05:47.968Z,38.07
2018-11-03T03:08:18.805Z,38.43
2018-11-03T03:10:50.215Z,37.70
2018-11-03T03:13:21.237Z,35.43
2018-11-03T03:15:52.098Z,35.90
2018-11-03T03:18:22.978Z,35.50
2018-11-03T03:20:54.076Z,36.50
2018-11-03T03:23:25.612Z,35.53
2018-11-03T03:25:56.558Z,36.07
2018-11-03T03:28:27.580Z,33.93
2018-11-03T03:30:58.421Z,37.27
2018-11-03T03:33:29.401Z,37.50
2018-11-03T03:36:00.266Z,36.97
2018-11-03T03:38:31.554Z,38.27
2018-11-03T03:41:02.399Z,37.23
2018-11-03T03:43:33.461Z,36.47
2018-11-03T03:46:04.404Z,37.67
2018-11-03T03:48:35.256Z,36.50
2018-11-03T03:51:06.294Z,37.67
2018-11-03T03:53:37.121Z,36.97
2018-11-03T03:56:08.047Z,38.40
2018-11-03T03:58:38.946Z,38.40
2018-11-03T04:01:09.947Z,38.63
2018-11-03T04:03:41.020Z,37.07
2018-11-03T04:06:12.035Z,38.33
2018-11-03T04:08:43.828Z,37.03
2018-11-03T04:11:14.664Z,36.53
2018-11-03T04:13:45.983Z,33.70
2018-11-03T04:16:16.832Z,32.50
2018-11-03T04:18:47.770Z,32.30
2018-11-03T04:21:22.633Z,31.67
2018-11-03T04:23:53.532Z,31.27
2018-11-03T04:26:24.391Z,31.63
2018-11-03T04:28:55.698Z,29.47
2018-11-03T04:31:27.382Z,28.40
2018-11-03T04:33:58.568Z,29.20
2018-11-03T04:36:29.440Z,27.63
2018-11-03T04:39:00.282Z,26.73
2018-11-03T04:41:31.250Z,26.57
2018-11-03T04:44:02.660Z,25.70
2018-11-03T04:46:33.502Z,24.30
2018-11-03T04:49:04.924Z,22.70
2018-11-03T04:51:36.038Z,21.20
2018-11-03T04:54:07.032Z,19.80
2018-11-03T04:56:37.926Z,19.37
2018-11-03T04:59:08.941Z,18.30
2018-11-03T05:01:39.851Z,18.30
2018-11-03T05:04:10.765Z,17.70
2018-11-03T05:06:42.038Z,17.83
2018-11-03T05:09:13.041Z,19.30
2018-11-03T05:11:43.873Z,20.40
2018-11-03T05:14:14.789Z,21.53
2018-11-03T05:16:45.648Z,21.67
2018-11-03T05:19:16.611Z,21.37
2018-11-03T05:21:47.438Z,21.10
2018-11-03T05:24:18.510Z,20.57
2018-11-03T05:26:49.369Z,19.43
2018-11-03T05:29:20.385Z,20.23
2018-11-03T05:31:51.183Z,20.50
2018-11-03T05:34:22.105Z,19.63
2018-11-03T05:36:53.343Z,20.87
2018-11-03T05:39:24.293Z,20.30
2018-11-03T05:41:55.216Z,19.83
2018-11-03T05:44:26.175Z,21.00
2018-11-03T05:46:57.106Z,20.83
2018-11-03T05:49:28.057Z,20.87
2018-11-03T05:51:59.124Z,20.90
2018-11-03T05:54:31.591Z,21.33
2018-11-03T05:57:02.917Z,21.30
2018-11-03T05:59:33.913Z,21.73
2018-11-03T06:02:04.918Z,22.53
2018-11-03T06:04:36.062Z,21.77
2018-11-03T06:07:07.987Z,23.13
2018-11-03T06:09:39.963Z,21.60
2018-11-03T06:12:10.922Z,22.00
2018-11-03T06:14:41.779Z,22.37
2018-11-03T06:17:12.655Z,22.47
2018-11-03T06:19:43.601Z,24.30
2018-11-03T06:22:14.481Z,35.80
2018-11-03T06:24:45.387Z,32.20
2018-11-03T06:27:16.241Z,27.00
2018-11-03T06:29:47.276Z,36.10
2018-11-03T06:32:18.196Z,34.03
2018-11-03T06:34:49.203Z,23.33
2018-11-03T06:37:20.087Z,27.23
2018-11-03T06:39:50.985Z,34.10
2018-11-03T06:42:21.899Z,38.73
2018-11-03T06:44:53.463Z,21.60
2018-11-03T06:47:24.345Z,21.70
2018-11-03T06:49:55.224Z,21.77
2018-11-03T06:52:26.330Z,21.50
2018-11-03T06:54:57.244Z,21.23
2018-11-03T06:57:29.034Z,19.97
2018-11-03T06:59:59.967Z,19.60
2018-11-03T07:02:30.771Z,19.07
2018-11-03T07:05:01.695Z,19.77
2018-11-03T07:07:32.502Z,19.30
2018-11-03T07:10:04.486Z,19.20
2018-11-03T07:12:35.981Z,18.70
2018-11-03T07:15:07.223Z,18.50
2018-11-03T07:17:38.479Z,18.70
2018-11-03T07:20:13.155Z,19.60
2018-11-03T07:22:44.677Z,19.17
2018-11-03T07:25:15.655Z,18.60
2018-11-03T07:27:46.532Z,18.80
2018-11-03T07:30:17.718Z,18.90
2018-11-03T07:32:48.609Z,18.27
2018-11-03T07:35:19.724Z,18.53
2018-11-03T07:37:50.572Z,18.63
2018-11-03T07:40:21.655Z,19.13
2018-11-03T07:42:52.643Z,19.07
2018-11-03T07:45:23.609Z,17.80
2018-11-03T07:47:54.467Z,17.37
2018-11-03T07:50:25.371Z,19.27
2018-11-03T07:52:56.237Z,18.10
2018-11-03T07:55:27.141Z,19.50
2018-11-03T07:57:58.142Z,18.17
2018-11-03T08:00:29.603Z,17.90
2018-11-03T08:03:00.548Z,16.87
2018-11-03T08:05:32.186Z,17.03
2018-11-03T08:08:03.233Z,16.47
2018-11-03T08:10:34.202Z,16.43
2018-11-03T08:13:05.522Z,16.50
2018-11-03T08:15:36.604Z,16.70
2018-11-03T08:18:07.872Z,15.93
2018-11-03T08:20:38.924Z,15.70
2018-11-03T08:23:09.832Z,15.20
2018-11-03T08:25:40.895Z,14.57
2018-11-03T08:28:11.814Z,15.97
2018-11-03T08:30:43.121Z,13.83
2018-11-03T08:33:14.071Z,13.43
2018-11-03T08:35:45.068Z,13.20
2018-11-03T08:38:15.947Z,12.53
2018-11-03T08:40:46.925Z,12.47
2018-11-03T08:43:17.793Z,20.33
2018-11-03T08:45:48.661Z,14.37
2018-11-03T08:48:19.629Z,12.10
2018-11-03T09:02:18.123Z,13.28
2018-11-03T09:05:04.147Z,11.38
2018-11-03T09:07:50.052Z,12.05
2018-11-03T09:10:35.827Z,12.82
2018-11-03T09:13:21.683Z,12.23
2018-11-03T09:16:07.443Z,13.68
2018-11-03T09:18:38.684Z,14.80
2018-11-03T09:21:10.309Z,11.97
2018-11-03T09:23:41.594Z,13.10
2018-11-03T09:26:12.908Z,12.78
2018-11-03T09:28:44.148Z,18.92
2018-11-03T09:31:29.871Z,15.05
2018-11-03T09:34:15.770Z,11.88
2018-11-03T09:37:01.541Z,11.73
2018-11-03T09:39:47.421Z,12.33
2018-11-03T09:42:33.101Z,12.80
2018-11-03T09:45:19.087Z,11.95
2018-11-03T09:47:50.153Z,12.23
2018-11-03T09:50:21.720Z,13.28
2018-11-03T09:52:53.405Z,11.33
2018-11-03T09:55:24.772Z,11.70
2018-11-03T09:57:56.290Z,11.45
2018-11-03T10:00:28.077Z,10.85
2018-11-03T10:02:59.457Z,11.18
2018-11-03T10:05:30.939Z,10.98
2018-11-03T10:08:02.856Z,12.23
2018-11-03T10:10:34.446Z,11.90
2018-11-03T10:13:06.060Z,11.50
2018-11-03T10:15:37.667Z,22.62
2018-11-03T10:18:09.096Z,21.25
2018-11-03T10:20:40.275Z,11.63
2018-11-03T10:23:11.986Z,11.80
2018-11-03T10:25:43.556Z,12.30
2018-11-03T10:28:14.935Z,11.60
2018-11-03T10:31:01.360Z,11.80
2018-11-03T10:33:47.322Z,12.60
2018-11-03T10:36:33.240Z,14.65
2018-11-03T10:39:19.025Z,14.30
2018-11-03T10:42:05.084Z,22.17
2018-11-03T10:44:50.965Z,25.52
2018-11-03T10:47:22.297Z,18.32
2018-11-03T10:49:53.581Z,18.32
2018-11-03T10:52:25.283Z,16.73
2018-11-03T10:54:56.497Z,21.60
2018-11-03T10:57:27.769Z,20.57
2018-11-03T10:59:59.065Z,21.15
2018-11-03T11:02:35.358Z,17.95
2018-11-03T11:05:11.840Z,20.45
2018-11-03T11:07:48.001Z,19.52
2018-11-03T11:10:26.190Z,18.15
2018-11-03T11:13:00.973Z,17.73
2018-11-03T11:15:32.341Z,17.82
2018-11-03T11:18:03.686Z,19.20
2018-11-03T11:20:35.250Z,18.82
2018-11-03T11:23:06.981Z,26.33
2018-11-03T11:25:37.922Z,18.23
2018-11-03T11:28:09.401Z,18.17
2018-11-03T11:30:55.521Z,19.15
2018-11-03T11:33:41.033Z,18.57
2018-11-03T11:36:26.731Z,19.05
2018-11-03T11:39:12.523Z,16.97
2018-11-03T11:41:57.977Z,20.37
2018-11-03T11:44:29.307Z,17.40
2018-11-03T11:47:00.810Z,17.97
2018-11-03T11:49:32.145Z,17.53
2018-11-03T11:52:03.634Z,17.90
2018-11-03T11:54:34.831Z,18.30
2018-11-03T11:57:06.528Z,20.27
2018-11-03T11:59:37.933Z,39.85
2018-11-03T12:02:09.031Z,69.93
2018-11-03T12:04:40.212Z,113.20
2018-11-03T12:07:11.756Z,28.47
2018-11-03T12:09:42.959Z,41.60
2018-11-03T12:12:14.139Z,29.27
2018-11-03T12:14:45.624Z,23.60
2018-11-03T12:17:16.995Z,22.50
2018-11-03T12:19:48.399Z,23.27
2018-11-03T12:22:19.533Z,21.95
2018-11-03T12:24:51.091Z,19.75
2018-11-03T12:27:36.913Z,20.05
2018-11-03T12:30:22.539Z,18.93
2018-11-03T12:33:08.293Z,18.95
2018-11-03T12:35:53.973Z,20.27
2018-11-03T12:38:39.779Z,19.15
2018-11-03T12:41:25.839Z,19.17
2018-11-03T12:44:11.788Z,19.57
2018-11-03T12:46:57.754Z,19.53
2018-11-03T12:49:43.361Z,20.80
2018-11-03T12:52:30.148Z,29.70
2018-11-03T12:55:15.863Z,18.37
2018-11-03T12:58:01.948Z,18.77
2018-11-03T13:00:33.564Z,17.83
2018-11-03T13:03:05.101Z,18.67
2018-11-03T13:05:36.612Z,19.83
2018-11-03T13:08:08.145Z,20.20
2018-11-03T13:10:39.588Z,20.43
2018-11-03T13:16:18.652Z,18.93
2018-11-03T13:18:49.859Z,20.10
2018-11-03T13:21:21.131Z,21.07
2018-11-03T13:23:52.256Z,22.53
2018-11-03T13:26:23.484Z,21.87
2018-11-03T13:28:54.733Z,21.03
2018-11-03T13:31:25.929Z,20.50
2018-11-03T13:33:57.364Z,21.40
2018-11-03T13:36:28.874Z,21.80
2018-11-03T13:39:00.252Z,21.37
2018-11-03T13:41:31.717Z,21.40
2018-11-03T13:44:03.151Z,21.43
2018-11-03T13:46:34.484Z,20.63
2018-11-03T13:49:05.764Z,20.60
2018-11-03T13:51:37.129Z,20.37
2018-11-03T13:54:10.122Z,20.13
2018-11-03T13:56:41.442Z,19.90
2018-11-03T13:59:12.873Z,19.57
2018-11-03T14:01:44.322Z,20.17
2018-11-03T14:04:15.656Z,19.50
2018-11-03T14:06:46.860Z,20.07
2018-11-03T14:09:18.394Z,20.17
2018-11-03T14:11:49.840Z,20.97
2018-11-03T14:14:21.315Z,27.53
2018-11-03T14:16:52.776Z,22.40
2018-11-03T14:19:24.112Z,21.60
2018-11-03T14:21:55.749Z,20.47
2018-11-03T14:24:26.924Z,23.37
2018-11-03T14:26:58.466Z,25.30
2018-11-03T14:29:29.794Z,25.60
2018-11-03T14:32:01.435Z,20.23
2018-11-03T14:34:32.734Z,19.53
2018-11-03T14:37:04.136Z,20.00
2018-11-03T14:39:35.719Z,20.13
2018-11-03T14:42:07.313Z,20.43
2018-11-03T14:44:38.494Z,20.87
2018-11-03T14:47:09.860Z,20.40
2018-11-03T14:49:41.273Z,20.30
2018-11-03T14:52:12.762Z,19.43
2018-11-03T14:54:47.088Z,19.27
2018-11-03T14:57:18.898Z,19.30
2018-11-03T14:59:50.510Z,19.97
2018-11-03T15:02:21.734Z,20.10
2018-11-03T15:04:53.240Z,20.17
2018-11-03T15:07:24.617Z,20.33
2018-11-03T15:09:56.605Z,23.70
2018-11-03T15:12:28.109Z,21.67
2018-11-03T15:14:59.743Z,19.77
2018-11-03T15:17:31.294Z,20.07
2018-11-03T15:20:02.718Z,20.60
2018-11-03T15:22:34.071Z,20.60
2018-11-03T15:25:05.597Z,19.73
2018-11-03T15:27:37.135Z,20.23
2018-11-03T15:30:10.665Z,20.07
2018-11-03T15:32:42.436Z,19.60
2018-11-03T15:35:14.057Z,20.97
2018-11-03T15:37:45.200Z,21.93
2018-11-03T15:40:17.049Z,18.00
2018-11-03T15:42:48.403Z,18.90
2018-11-03T15:45:19.759Z,19.40
2018-11-03T15:47:51.213Z,19.70
2018-11-03T15:50:22.736Z,21.90
2018-11-03T15:52:54.105Z,19.47
2018-11-03T15:55:25.246Z,19.47
2018-11-03T15:57:56.892Z,20.97
2018-11-03T16:00:28.240Z,20.53
2018-11-03T16:02:59.537Z,20.40
2018-11-03T16:05:30.932Z,18.97
2018-11-03T16:08:02.405Z,19.23
2018-11-03T16:10:33.855Z,19.40
2018-11-03T16:13:05.237Z,23.07
2018-11-03T16:15:36.731Z,21.03
2018-11-03T16:18:08.522Z,20.57
2018-11-03T16:20:40.373Z,21.30
2018-11-03T16:23:11.764Z,20.47
2018-11-03T16:25:42.981Z,21.73
2018-11-03T16:28:14.480Z,22.40
2018-11-03T16:30:46.521Z,21.43
2018-11-03T16:33:17.841Z,22.77
2018-11-03T16:35:49.294Z,22.07
2018-11-03T16:38:20.638Z,22.80
2018-11-03T16:40:51.956Z,23.57
2018-11-03T16:43:23.292Z,23.33
2018-11-03T16:45:54.735Z,23.33
2018-11-03T16:48:26.530Z,24.30
2018-11-03T16:50:58.126Z,24.47
2018-11-03T16:53:29.789Z,25.13
2018-11-03T16:56:01.274Z,24.53
2018-11-03T16:58:33.031Z,25.30
2018-11-03T17:01:04.452Z,27.00
2018-11-03T17:03:36.033Z,24.40
2018-11-03T17:06:07.232Z,24.23
2018-11-03T17:08:39.172Z,24.40
2018-11-03T17:11:11.035Z,23.97
2018-11-03T17:13:42.639Z,23.83
2018-11-03T17:16:14.577Z,23.57
2018-11-03T17:18:46.434Z,25.23
2018-11-03T17:21:18.268Z,24.00
2018-11-03T17:23:50.047Z,25.73
2018-11-03T17:26:21.460Z,24.27
2018-11-03T17:28:52.998Z,21.77
2018-11-03T17:31:24.270Z,23.90
2018-11-03T17:33:55.888Z,37.80
2018-11-03T17:36:27.645Z,26.27
2018-11-03T17:38:59.430Z,27.37
2018-11-03T17:41:30.745Z,28.30
2018-11-03T17:44:02.631Z,31.17
2018-11-03T17:46:34.119Z,24.30
2018-11-03T17:49:05.666Z,25.57
2018-11-03T17:51:37.443Z,27.97
2018-11-03T17:54:08.882Z,26.70
2018-11-03T17:56:40.806Z,25.83
2018-11-03T17:59:12.476Z,23.63
2018-11-03T18:01:44.324Z,24.93
2018-11-03T18:04:15.805Z,25.33
2018-11-03T18:06:47.613Z,24.93
2018-11-03T18:09:19.144Z,22.97
2018-11-03T18:11:50.743Z,23.43
2018-11-03T18:14:22.210Z,23.37
2018-11-03T18:16:54.283Z,25.20
2018-11-03T18:19:25.598Z,23.40
2018-11-03T18:21:57.309Z,23.00
2018-11-03T18:24:28.958Z,29.63
2018-11-03T18:27:00.909Z,26.30
2018-11-03T18:29:32.518Z,28.57
2018-11-03T18:32:04.189Z,30.23
2018-11-03T18:34:35.582Z,47.27
2018-11-03T18:37:07.313Z,39.80
2018-11-03T18:39:38.914Z,27.97
2018-11-03T18:42:10.251Z,24.37
2018-11-03T18:44:41.771Z,25.77
2018-11-03T18:47:13.336Z,26.23
2018-11-03T18:49:44.866Z,27.00
2018-11-03T18:52:16.572Z,27.27
2018-11-03T18:54:49.121Z,25.93
2018-11-03T18:57:20.641Z,27.40
2018-11-03T18:59:52.213Z,24.63
2018-11-03T19:02:23.992Z,24.03
2018-11-03T19:04:55.581Z,22.30
2018-11-03T19:07:27.363Z,21.67
2018-11-03T19:09:58.795Z,22.80
2018-11-03T19:12:30.515Z,21.57
2018-11-03T19:15:02.079Z,20.50
2018-11-03T19:17:33.581Z,20.90
2018-11-03T19:20:05.470Z,21.00
2018-11-03T19:22:37.202Z,19.83
2018-11-03T19:25:10.797Z,21.37
2018-11-03T19:27:42.380Z,24.53
2018-11-03T19:30:14.543Z,23.80
2018-11-03T19:32:46.168Z,26.13
2018-11-03T19:35:17.867Z,27.70
2018-11-03T19:37:56.086Z,30.63
2018-11-03T19:40:27.651Z,31.87
2018-11-03T19:42:59.189Z,28.40
2018-11-03T19:45:30.906Z,28.53
2018-11-03T19:48:02.740Z,25.90
2018-11-03T19:50:34.130Z,32.17
2018-11-03T19:53:05.438Z,25.77
2018-11-03T19:55:36.956Z,23.37
2018-11-03T19:58:08.480Z,22.10
2018-11-03T20:00:40.285Z,23.07
2018-11-03T20:03:11.744Z,26.70
2018-11-03T20:05:42.919Z,29.97
2018-11-03T20:08:14.387Z,39.73
2018-11-03T20:10:46.120Z,41.13
2018-11-03T20:13:17.565Z,25.30
2018-11-03T20:15:49.101Z,23.93
2018-11-03T20:18:20.839Z,27.00
2018-11-03T20:20:52.399Z,40.83
2018-11-03T20:23:24.218Z,30.27
2018-11-03T20:25:57.937Z,37.60
2018-11-03T20:28:29.575Z,36.53
2018-11-03T20:31:01.514Z,23.13
2018-11-03T20:33:40.839Z,27.03
2018-11-03T20:36:13.396Z,29.83
2018-11-03T20:38:45.597Z,40.07
2018-11-03T20:41:17.559Z,25.27
2018-11-03T20:43:49.411Z,23.97
2018-11-03T20:46:21.485Z,22.37
2018-11-03T20:48:53.404Z,24.73
2018-11-03T20:51:25.268Z,24.53
2018-11-03T20:53:56.613Z,25.03
2018-11-03T20:56:28.341Z,22.60
2018-11-03T20:58:59.839Z,41.10
2018-11-03T21:01:31.183Z,26.90
2018-11-03T21:04:02.854Z,26.73
2018-11-03T21:06:34.213Z,27.47
2018-11-03T21:09:06.702Z,24.17
2018-11-03T21:11:38.185Z,21.23
2018-11-03T21:14:12.514Z,29.20
2018-11-03T21:16:44.051Z,42.30
2018-11-03T21:19:15.389Z,39.23
2018-11-03T21:21:46.826Z,25.47
2018-11-03T21:24:18.354Z,20.93
2018-11-03T21:26:49.865Z,49.17
2018-11-03T21:29:21.647Z,55.50
2018-11-03T21:31:53.248Z,29.07
2018-11-03T21:34:25.191Z,57.70
2018-11-03T21:36:58.037Z,47.00
2018-11-03T21:39:29.642Z,24.67
2018-11-03T21:42:01.347Z,23.53
2018-11-03T21:44:32.625Z,24.73
2018-11-03T21:47:04.523Z,26.80
2018-11-03T21:49:36.168Z,29.43
2018-11-03T21:52:07.823Z,38.57
2018-11-03T21:54:39.345Z,28.40
2018-11-03T21:57:10.806Z,26.23
2018-11-03T21:59:42.247Z,24.77
2018-11-03T22:02:14.753Z,24.27
2018-11-03T22:04:45.981Z,23.83
2018-11-03T22:07:17.355Z,23.43
2018-11-03T22:09:49.373Z,24.10
2018-11-03T22:12:20.931Z,22.87
2018-11-03T22:14:54.187Z,22.03
2018-11-03T22:17:25.710Z,23.17
2018-11-03T22:19:56.882Z,22.90
2018-11-03T22:22:28.565Z,24.70
2018-11-03T22:24:59.890Z,62.37
2018-11-03T22:27:31.699Z,76.93
2018-11-03T22:30:03.035Z,27.00
2018-11-03T22:32:34.311Z,23.30
2018-11-03T22:35:06.062Z,22.73
2018-11-03T22:37:37.729Z,21.87
2018-11-03T22:40:09.778Z,21.50
2018-11-03T22:42:41.121Z,23.53
2018-11-03T22:45:12.169Z,22.37
2018-11-03T22:47:43.611Z,22.63
2018-11-03T22:50:15.082Z,23.63
2018-11-03T22:52:46.636Z,23.27
2018-11-03T22:55:17.935Z,23.97
2018-11-03T22:57:49.368Z,23.47
2018-11-03T23:00:20.913Z,23.30
2018-11-03T23:02:52.536Z,22.27
2018-11-03T23:05:23.818Z,23.20
2018-11-03T23:07:55.276Z,24.73
2018-11-03T23:10:26.451Z,23.83
2018-11-03T23:12:57.676Z,24.07
2018-11-03T23:15:29.089Z,24.53
2018-11-03T23:18:00.672Z,39.57
2018-11-03T23:20:32.136Z,25.67
2018-11-03T23:23:03.603Z,23.17
2018-11-03T23:25:34.970Z,23.27
2018-11-03T23:28:06.589Z,22.77
2018-11-03T23:30:38.147Z,40.47
2018-11-03T23:33:09.425Z,68.30
2018-11-03T23:35:40.753Z,29.63
2018-11-03T23:38:12.132Z,26.10
2018-11-03T23:40:43.421Z,24.63
2018-11-03T23:43:14.732Z,23.07
2018-11-03T23:45:46.519Z,24.70
2018-11-03T23:48:18.127Z,22.60
2018-11-03T23:50:49.370Z,23.07
2018-11-03T23:53:20.755Z,21.53
2018-11-03T23:55:52.045Z,20.67
2018-11-03T23:58:23.463Z,22.47
